METAR / TAF
Helsinki-Vantaa
HELSINKI/VANTAA
Metar
EFHK 230950Z 12023KT 0800 R04R/1300N R15/1200N R22L/1200N R04L/1400U SN DRSN BKN005 M00/M01 Q1011 TEMPO 1500

09:50 UTC

Wind: 120° 23kt

Visibility: 800 m

Sky: BKN 500 ft

Temp: 0 deg C / 32 deg F

Dewpoint: -1 deg C / 30.2 deg F

Pressure: 1011 hPa

TAF
TAF EFHK 230823Z 2309/2409 14020KT 5000 -SN SCT010 BKN015 TEMPO 2309/2312 14020G30KT 1200 SNRA VV008 BECMG 2312/2314 8000 BKN008 BECMG 2315/2317 16010KT BKN004 TEMPO 2317/2403 2000 -DZ BKN002 TEMPO 2403/2409 0800 FG BKN001
Helsinki, Malmi
HELSINKI/MALMI
Turku
TURKU/ABO
Metar
EFTU 230950Z AUTO 14015G28KT 110V170 2600 -RA BR OVC005/// 01/00 Q1004

09:50 UTC

Wind: 140° 15kt

Visibility: 2600 m

Sky: OVC 500 ft

Temp: 1 deg C / 33.8 deg F

Dewpoint: 0 deg C / 32 deg F

Pressure: 1004 hPa

TAF
TAF EFTU 230823Z 2309/2409 15018G28KT 4000 -SN SCT008 BKN015 TEMPO 2309/2311 1200 SNRA VV005 BECMG 2311/2313 8000 BKN003 TEMPO 2313/2318 3000 -DZRA BECMG 2318/2320 BKN005 TEMPO 2320/2401 5000 -DZRA TEMPO 2401/2409 3000 RA BKN004 BECMG 2406/2408 21010KT
Tampere, Pirkkala
TAMPERE/PIRKKALA
Metar
EFTP 230950Z 13017G29KT 1000 R06/1400U R24/1500U -SN DRSN BKN009 M01/M02 Q1007

09:50 UTC

Wind: 130° 17kt

Visibility: 1000 m

Sky: BKN 900 ft

Temp: -1 deg C / 30.2 deg F

Dewpoint: -2 deg C / 28.4 deg F

Pressure: 1007 hPa

TAF
TAF EFTP 230828Z 2309/2409 12015KT 3000 -SN BKN012 TEMPO 2309/2316 12015G28KT 0800 SN VV008 PROB40 TEMPO 2312/2316 -FZRA BECMG 2316/2318 BKN004 TEMPO 2403/2406 0600 FG VV001 TEMPO 2406/2409 5000 RA
Maarianhamina
MARIEHAMN/ALAND
Metar
EFMA 230950Z 16016KT 5000 OVC007 07/06 Q0999

09:50 UTC

Wind: 160° 16kt

Visibility: 5000 m

Sky: OVC 700 ft

Temp: 7 deg C / 44.6 deg F

Dewpoint: 6 deg C / 42.8 deg F

Pressure: 999 hPa

TAF
TAF EFMA 230823Z 2309/2318 14018G28KT 8000 -RA BKN010 TEMPO 2309/2311 2000 DZ BKN004 BECMG 2311/2313 BKN012 TEMPO 2313/2318 SCT020
Pori
PORI (MIL/CIV)
Metar
EFPO 230950Z AUTO 14025KT 8000 -DZ OVC011/// 01/M01 Q1002

09:50 UTC

Wind: 140° 25kt

Visibility: 8000 m

Sky: OVC 1100 ft

Temp: 1 deg C / 33.8 deg F

Dewpoint: -1 deg C / 30.2 deg F

Pressure: 1002 hPa

TAF
TAF AMD EFPO 230925Z 2309/2318 13020KT 9000 -SN FEW008 BKN013 TEMPO 2309/2312 13025G35KT 2000 -SNRA PROB40 TEMPO 2309/2311 -FZRA TEMPO 2312/2318 3000 BR BKN005
Vaasa
VAASA
Metar
EFVA 230950Z AUTO 13018G30KT 110V170 0800 R16/1100U SN FEW005/// OVC012/// M02/M03 Q1001

09:50 UTC

Wind: 130° 18kt

Visibility: 800 m

Sky: FEW 500 ft

Temp: -2 deg C / 28.4 deg F

Dewpoint: -3 deg C / 26.6 deg F

Pressure: 1001 hPa

TAF
TAF AMD EFVA 230925Z 2309/2409 12014KT 2500 -SN FEW010 BKN015 TEMPO 2309/2315 12018G32KT 0700 SN VV008 BECMG 2315/2317 9999 BKN014 TEMPO 2321/2406 4000 -DZRA BKN008 BECMG 2406/2408 BKN015
Kruunupyy
KRUUNUPYY
Metar
EFKK 230950Z 11017G28KT 080V140 1900 -SN DRSN FEW011 BKN018 OVC024 M04/M05 Q1006

09:50 UTC

Wind: 110° 17kt

Visibility: 1900 m

Sky: FEW 1100 ft

Temp: -4 deg C / 24.8 deg F

Dewpoint: -5 deg C / 23 deg F

Pressure: 1006 hPa

TAF
TAF EFKK 230828Z 2309/2318 11014KT 5000 -SN SCT015 BKN020 TEMPO 2309/2315 11018G28KT 1000 SN VV012 TEMPO 2315/2318 2000 -FZRA
Jyväskylä, Tikkakoski
JYVASKYLA (MIL/C
Metar
EFJY 230950Z 12016KT 2500 -SN DRSN BKN009 M04/M06 Q1012

09:50 UTC

Wind: 120° 16kt

Visibility: 2500 m

Sky: BKN 900 ft

Temp: -4 deg C / 24.8 deg F

Dewpoint: -6 deg C / 21.2 deg F

Pressure: 1012 hPa

TAF
TAF EFJY 230828Z 2309/2409 13012KT 9999 FEW008 OVC010 BECMG 2309/2311 3000 -SN TEMPO 2309/2315 12015G25KT 0800 SN VV008 TEMPO 2315/2318 1200 -FZRA BECMG 2318/2320 OVC003 TEMPO 2400/2406 1500 -RASN
Kuopio
KUOPIO (MIL/CIV)
Metar
EFKU 230950Z 13016G28KT 9999 FEW013 BKN100 M05/M10 Q1017

09:50 UTC

Wind: 130° 16kt

Visibility: 9999 m

Sky: FEW 1300 ft

Temp: -5 deg C / 23 deg F

Dewpoint: -10 deg C / 14 deg F

Pressure: 1017 hPa

TAF
TAF EFKU 230831Z 2309/2409 13012KT 9999 FEW010 TEMPO 2309/2312 12015G25KT BECMG 2312/2314 3000 -SN TEMPO 2312/2314 13018G28KT BKN008 TEMPO 2314/2319 12018G28KT 1000 SN VV008 TEMPO 2319/2323 13015G25KT 1200 -FZRA BKN008 BECMG 2323/2401 6000 BKN007 TEMPO 2323/2401 -FZDZ TEMPO 2401/2406 -FZDZ BKN004 TEMPO 2406/2409 2000 -SN
Joensuu
JOENSUU
Metar
EFJO 230950Z AUTO 11008KT CAVOK M08/M09 Q1019

09:50 UTC

Wind: 110° 8kt

Visibility:

Sky:

Temp: -8 deg C / 17.6 deg F

Dewpoint: -9 deg C / 15.8 deg F

Pressure: 1019 hPa

TAF
TAF EFJO 230831Z 2309/2318 09006KT CAVOK TEMPO 2312/2315 13015G25KT BECMG 2315/2317 3000 -SN TEMPO 2315/2318 13015G25KT 1500 SN VV008
Halli
HALLI (FIN-AFB)
Metar
EFHA 230950Z 12016KT 2200 DRSN OVC013 M03/M04 Q1009

09:50 UTC

Wind: 120° 16kt

Visibility: 2200 m

Sky: OVC 1300 ft

Temp: -3 deg C / 26.6 deg F

Dewpoint: -4 deg C / 24.8 deg F

Pressure: 1009 hPa

TAF
TAF EFHA 230828Z 2309/2314 12013KT 3000 -SN BKN005 OVC030 TEMPO 2309/2312 12015G28KT 1000 SN VV010 TEMPO 2312/2314 -FZRA
Utti
UTTI (FIN-AFB)
Metar
EFUT 230950Z 10016KT 9999 -SN OVC007 M03/M04 Q1015

09:50 UTC

Wind: 100° 16kt

Visibility: 9999 m

Sky: OVC 700 ft

Temp: -3 deg C / 26.6 deg F

Dewpoint: -4 deg C / 24.8 deg F

Pressure: 1015 hPa

TAF
TAF EFUT 230831Z 2309/2314 11014KT 9999 OVC010 BECMG 2309/2310 5000 -SN TEMPO 2309/2310 BKN008 TEMPO 2310/2314 13015G25KT 1000 SN BKN008
Mikkeli
MIKKELI
Metar
EFMI 230950Z AUTO 12013KT 090V150 9999 OVC010 M04/M06 Q1016

09:50 UTC

Wind: 120° 13kt

Visibility: 9999 m

Sky: OVC 1000 ft

Temp: -4 deg C / 24.8 deg F

Dewpoint: -6 deg C / 21.2 deg F

Pressure: 1016 hPa

Savonlinna
SAVONLINNA (AUT)
Metar
EFSA 230950Z AUTO 11011KT 9999 OVC011 M05/M07 Q1018

09:50 UTC

Wind: 110° 11kt

Visibility: 9999 m

Sky: OVC 1100 ft

Temp: -5 deg C / 23 deg F

Dewpoint: -7 deg C / 19.4 deg F

Pressure: 1018 hPa

TAF
TAF EFSA 230831Z 2309/2318 11011KT 9999 BKN015 TEMPO 2309/2313 BKN013 BECMG 2313/2315 3000 -SN BKN010 TEMPO 2313/2315 13015G25KT TEMPO 2315/2318 13015G25KT 1000 SN VV008
Lappeenranta
LAPPEENRANTA
Metar
EFLP 230950Z AUTO 12008KT 070V160 9999 OVC012 M05/M06 Q1017

09:50 UTC

Wind: 120° 8kt

Visibility: 9999 m

Sky: OVC 1200 ft

Temp: -5 deg C / 23 deg F

Dewpoint: -6 deg C / 21.2 deg F

Pressure: 1017 hPa

TAF
TAF EFLP 230831Z 2309/2312 11007KT 9999 BKN015 TEMPO 2309/2310 BKN010 BECMG 2310/2312 12015G25KT 4000 -SN BKN009
Oulu
OULU/ULEABORG
Metar
EFOU 230950Z AUTO 13024KT 9999 OVC089/// M06/M09 Q1014

09:50 UTC

Wind: 130° 24kt

Visibility: 9999 m

Sky: OVC 8900 ft

Temp: -6 deg C / 21.2 deg F

Dewpoint: -9 deg C / 15.8 deg F

Pressure: 1014 hPa

TAF
TAF EFOU 230827Z 2309/2409 14018KT CAVOK TEMPO 2309/2312 14023G33KT BECMG 2312/2314 14020G33KT 4000 -SN TEMPO 2314/2323 1000 SN VV008 BECMG 2323/2401 8000 -FZRA BKN010 BECMG 2402/2404 16013KT 6000 -SHSN BKN008 TEMPO 2404/2409 9999
Kemi
KEMI
Metar
EFKE 230950Z AUTO 11016KT 070V140 CAVOK M07/M09 Q1014

09:50 UTC

Wind: 110° 16kt

Visibility:

Sky:

Temp: -7 deg C / 19.4 deg F

Dewpoint: -9 deg C / 15.8 deg F

Pressure: 1014 hPa

TAF
TAF EFKE 230827Z 2309/2318 10013KT CAVOK TEMPO 2309/2312 12015G25KT BECMG 2312/2314 12020G30KT 1500 SN
Rovaniemi
ROVANIEMI (CIV/M
Metar
EFRO 230950Z 06007KT 9999 FEW001 OVC120 M14/M16 Q1016

09:50 UTC

Wind: 60° 7kt

Visibility: 9999 m

Sky: FEW 100 ft

Temp: -14 deg C / 6.8 deg F

Dewpoint: -16 deg C / 3.2 deg F

Pressure: 1016 hPa

TAF
TAF EFRO 230827Z 2309/2409 08010KT CAVOK TEMPO 2309/2314 4000 BR SCT001 TEMPO 2314/2318 12015G25KT 4000 -SN BECMG 2318/2320 11020G30KT 2500 -SN BKN010 TEMPO 2320/2404 0700 SN VV006 BECMG 2407/2409 16010KT 8000
Enontekiö
ENONTEKIO
Metar
EFET 230950Z AUTO 06007KT 020V110 //// OVC128 M15/M17 Q1015

09:50 UTC

Wind: 60° 7kt

Visibility:

Sky: OVC 12800 ft

Temp: -15 deg C / 5 deg F

Dewpoint: -17 deg C / 1.4 deg F

Pressure: 1015 hPa

Ivalo
IVALO
Metar
EFIV 230950Z 26001KT 9999 FEW005 BKN150 M22/M24 Q1022

09:50 UTC

Wind: 260° 1kt

Visibility: 9999 m

Sky: FEW 500 ft

Temp: -22 deg C / -7.6 deg F

Dewpoint: -24 deg C / -11.2 deg F

Pressure: 1022 hPa

TAF
TAF AMD EFIV 230936Z 2310/2318 24005KT 8000 -SN SCT008 TEMPO 2310/2313 2000 BR BKN004
Kittilä
KITTILA
Metar
EFKT 230950Z 05002KT CAVOK M17/M19 Q1017

09:50 UTC

Wind: 50° 2kt

Visibility:

Sky:

Temp: -17 deg C / 1.4 deg F

Dewpoint: -19 deg C / -2.2 deg F

Pressure: 1017 hPa

TAF
TAF EFKT 230827Z 2309/2318 06005KT 9999 -SN FEW006
Kuusamo
KUUSAMO
Metar
EFKS 230950Z 09004KT 060V120 4500 -SN OVC006 M12/M14 Q1019

09:50 UTC

Wind: 90° 4kt

Visibility: 4500 m

Sky: OVC 600 ft

Temp: -12 deg C / 10.4 deg F

Dewpoint: -14 deg C / 6.8 deg F

Pressure: 1019 hPa

TAF
TAF EFKS 230827Z 2309/2313 08005KT 8000 -SN BKN004 TEMPO 2309/2311 0700 SN BKN001 BECMG 2311/2313 14013KT BKN006
Kajaani
KAJAANI
Metar
EFKI 230950Z AUTO 13010KT 090V170 CAVOK M08/M10 Q1017

09:50 UTC

Wind: 130° 10kt

Visibility:

Sky:

Temp: -8 deg C / 17.6 deg F

Dewpoint: -10 deg C / 14 deg F

Pressure: 1017 hPa

TAF
TAF AMD EFKI 230852Z 2309/2318 12010KT 9999 SCT009 TEMPO 2309/2312 BKN010 BECMG 2312/2314 3000 -SN BKN010 TEMPO 2312/2314 12015G28KT TEMPO 2314/2318 12015G28KT 1500 SN VV008
Varkaus
VARKAUS
Seinäjoki
SEINAJOKI-ILMAJO
Metar
EFSI 230950Z AUTO 13022KT 100V160 0600 SN SCT004 BKN010 OVC015 M02/M04 Q1003

09:50 UTC

Wind: 130° 22kt

Visibility: 600 m

Sky: SCT 400 ft

Temp: -2 deg C / 28.4 deg F

Dewpoint: -4 deg C / 24.8 deg F

Pressure: 1003 hPa

Print Friendly, PDF & Email